Time;durP1;ratioP1;P1;durP2;ratioP2;P2;SDS_P1;SDS_P2;PMS_P1;PMS_P2;Temp;Humidity;BMP_temperature;BMP_pressure;BME280_temperature;BME280_humidity;BME280_pressure;Samples;Min_cycle;Max_cycle;Signal;HPM_P1;HPM_P2
2024/04/24 00:00:22;;;;;;;2.10;0.50;;;;;;;6.50;82.09;100555.09;5473480;26;20469;-69
2024/04/24 00:02:54;;;;;;;2.23;0.43;;;;;;;6.52;81.60;100558.34;5476719;26;20476;-69
2024/04/24 00:05:22;;;;;;;2.23;0.53;;;;;;;6.52;80.80;100550.25;5467315;26;20466;-69
2024/04/24 00:07:50;;;;;;;2.10;0.57;;;;;;;6.55;79.64;100554.28;5468684;26;20461;-67
2024/04/24 00:10:19;;;;;;;2.37;0.90;;;;;;;6.50;79.14;100541.66;5460654;26;20548;-67
2024/04/24 00:12:47;;;;;;;3.53;0.70;;;;;;;6.48;79.06;100540.31;5476719;26;20476;-67
2024/04/24 00:15:16;;;;;;;2.17;0.53;;;;;;;6.40;77.62;100538.19;5473743;26;20509;-67
2024/04/24 00:17:44;;;;;;;6.33;1.70;;;;;;;6.44;77.27;100537.38;5471109;26;20580;-67
2024/04/24 00:20:12;;;;;;;3.37;0.77;;;;;;;6.38;79.16;100532.31;5417462;26;20849;-67
2024/04/24 00:22:40;;;;;;;4.57;0.97;;;;;;;6.43;78.87;100525.00;5466427;26;20842;-67
2024/04/24 00:25:11;;;;;;;2.40;0.90;;;;;;;6.46;78.39;100529.03;5476371;26;20859;-68
2024/04/24 00:27:40;;;;;;;2.10;0.50;;;;;;;6.43;77.10;100521.53;5472217;26;20473;-67
2024/04/24 00:30:12;;;;;;;2.50;1.00;;;;;;;6.37;76.00;100517.22;5468681;26;21005;-67
2024/04/24 00:32:40;;;;;;;2.17;0.60;;;;;;;6.34;75.80;100518.59;5476286;26;20546;-67
2024/04/24 00:35:08;;;;;;;2.10;0.40;;;;;;;6.36;74.52;100518.31;5479309;26;20505;-67
2024/04/24 00:37:37;;;;;;;2.63;1.10;;;;;;;6.33;74.24;100516.97;5476001;26;20524;-67
2024/04/24 00:40:06;;;;;;;2.17;0.63;;;;;;;6.29;73.87;100515.91;5466241;26;20461;-67
2024/04/24 00:42:34;;;;;;;3.80;1.23;;;;;;;6.26;74.39;100509.19;5482596;26;20535;-67
2024/04/24 00:45:02;;;;;;;2.10;0.50;;;;;;;6.25;74.89;100502.22;5480281;26;20472;-69
2024/04/24 00:47:33;;;;;;;3.13;1.10;;;;;;;6.27;74.77;100507.31;5476216;26;20468;-67
2024/04/24 00:50:03;;;;;;;3.90;1.20;;;;;;;6.30;74.72;100507.56;5469783;26;20523;-67
2024/04/24 00:52:31;;;;;;;2.87;0.93;;;;;;;6.27;74.57;100497.34;5479582;25;20472;-69
2024/04/24 00:55:00;;;;;;;2.90;1.10;;;;;;;6.31;74.24;100490.34;5477093;26;20523;-69
2024/04/24 00:57:28;;;;;;;2.30;0.60;;;;;;;6.34;74.79;100485.50;5479692;26;20465;-69
2024/04/24 00:59:59;;;;;;;2.70;1.10;;;;;;;6.38;75.68;100481.19;5470515;26;20462;-69
2024/04/24 01:02:28;;;;;;;2.10;0.50;;;;;;;6.43;76.79;100475.78;5462993;26;20480;-68
2024/04/24 01:04:56;;;;;;;2.17;0.50;;;;;;;6.40;77.51;100476.31;5479384;26;20496;-69
2024/04/24 01:07:25;;;;;;;2.23;0.70;;;;;;;6.40;77.00;100469.06;5482466;26;20456;-68
2024/04/24 01:09:53;;;;;;;2.60;0.97;;;;;;;6.43;75.76;100462.34;5472971;26;20893;-69
2024/04/24 01:12:19;;;;;;;2.30;0.70;;;;;;;6.45;74.87;100454.78;5467967;26;20520;-68
2024/04/24 01:14:47;;;;;;;2.10;0.40;;;;;;;6.47;75.51;100458.00;5479514;26;21780;-69
2024/04/24 01:17:20;;;;;;;2.43;0.83;;;;;;;6.52;75.19;100453.41;5478724;26;20619;-68
2024/04/24 01:19:50;;;;;;;2.13;0.53;;;;;;;6.54;75.72;100451.22;5474650;26;20536;-68
2024/04/24 01:22:38;;;;;;;2.00;0.40;;;;;;;6.59;75.51;100447.69;5469812;26;20532;-68
2024/04/24 01:25:15;;;;;;;2.00;0.40;;;;;;;6.56;74.76;100438.31;5482315;26;20874;-68
2024/04/24 01:27:47;;;;;;;2.40;0.67;;;;;;;6.57;73.31;100449.88;5479149;26;20479;-68
2024/04/24 01:30:15;;;;;;;2.30;0.87;;;;;;;6.57;71.93;100439.91;5479890;26;20476;-68
2024/04/24 01:32:43;;;;;;;2.10;0.50;;;;;;;6.61;73.66;100439.38;5467883;26;21080;-70
2024/04/24 01:35:12;;;;;;;2.10;0.50;;;;;;;6.62;74.48;100436.38;5475572;26;20473;-67
2024/04/24 01:37:40;;;;;;;2.30;0.70;;;;;;;6.66;73.27;100437.44;5478098;26;20472;-67
2024/04/24 01:40:10;;;;;;;2.13;0.50;;;;;;;6.62;72.18;100436.38;5478993;26;20465;-67
2024/04/24 01:42:38;;;;;;;3.30;0.83;;;;;;;6.57;70.98;100436.41;5471841;26;20477;-67
2024/04/24 01:45:09;;;;;;;2.97;1.40;;;;;;;6.55;70.60;100425.13;5475494;26;20469;-67
2024/04/24 01:47:38;;;;;;;2.10;0.50;;;;;;;6.52;69.91;100417.63;5470368;26;20532;-67
2024/04/24 01:50:06;;;;;;;2.30;0.70;;;;;;;6.52;68.81;100423.00;5479136;26;20521;-67
2024/04/24 01:52:34;;;;;;;2.70;0.70;;;;;;;6.55;68.72;100411.66;5474403;26;20484;-67
2024/04/24 01:55:03;;;;;;;2.20;0.63;;;;;;;6.54;67.70;100410.06;5479110;26;20465;-66
2024/04/24 01:57:31;;;;;;;2.10;0.50;;;;;;;6.53;67.76;100408.47;5476356;26;20472;-67
2024/04/24 01:59:59;;;;;;;2.37;0.83;;;;;;;6.53;68.39;100403.88;5466158;26;20513;-67
2024/04/24 02:02:30;;;;;;;2.40;0.50;;;;;;;6.52;67.48;100409.53;5478448;26;20472;-67
2024/04/24 02:04:59;;;;;;;2.07;0.33;;;;;;;6.54;67.23;100404.69;5478668;26;20853;-67
2024/04/24 02:07:27;;;;;;;2.40;0.90;;;;;;;6.45;68.65;100401.75;5478430;26;20465;-67
2024/04/24 02:09:55;;;;;;;2.43;0.83;;;;;;;6.48;69.79;100400.41;5470008;26;20474;-68
2024/04/24 02:12:23;;;;;;;3.53;1.00;;;;;;;6.52;70.19;100396.09;5462802;26;20537;-67
2024/04/24 02:14:52;;;;;;;2.20;0.60;;;;;;;6.57;69.32;100398.75;5463865;26;20518;-68
2024/04/24 02:17:20;;;;;;;2.73;1.00;;;;;;;6.57;70.93;100388.00;5477522;26;20540;-68
2024/04/24 02:19:51;;;;;;;2.10;0.50;;;;;;;6.60;71.23;100397.38;5475259;26;20521;-68
2024/04/24 02:22:19;;;;;;;5.33;2.17;;;;;;;6.61;72.03;100391.72;5464042;26;20632;-69
2024/04/24 02:27:32;;;;;;;2.47;0.77;;;;;;;6.61;70.99;100386.34;5480606;26;21132;-68
2024/04/24 02:30:00;;;;;;;2.50;0.70;;;;;;;6.57;71.09;100385.28;5481130;26;20800;-68
2024/04/24 02:32:28;;;;;;;2.80;1.37;;;;;;;6.52;70.82;100374.56;5469118;26;20882;-68
2024/04/24 02:34:59;;;;;;;2.57;1.30;;;;;;;6.55;70.69;100376.69;5449971;26;20474;-68
2024/04/24 02:37:28;;;;;;;3.10;1.17;;;;;;;6.50;69.79;100376.72;5444705;26;20458;-68
2024/04/24 02:39:56;;;;;;;2.00;0.40;;;;;;;6.51;70.67;100378.34;5471847;26;20477;-68
2024/04/24 02:42:24;;;;;;;2.10;0.40;;;;;;;6.48;70.48;100368.13;5463994;26;20528;-68
2024/04/24 02:44:53;;;;;;;3.03;0.97;;;;;;;6.41;72.62;100371.13;5481260;26;20449;-68
2024/04/24 02:47:21;;;;;;;2.20;0.50;;;;;;;6.38;71.38;100368.22;5443651;21;21031;-67
2024/04/24 02:49:47;;;;;;;2.50;0.90;;;;;;;6.38;71.25;100362.81;5422832;26;20470;-67
2024/04/24 02:52:18;;;;;;;4.33;1.50;;;;;;;6.35;70.48;100368.75;5435617;26;20474;-67
2024/04/24 02:54:46;;;;;;;2.27;0.83;;;;;;;6.24;69.99;100355.38;5441557;26;20239;-67
2024/04/24 02:57:14;;;;;;;2.70;0.87;;;;;;;6.18;71.07;100359.16;5440865;26;20474;-67
2024/04/24 02:59:42;;;;;;;2.67;0.60;;;;;;;6.12;71.21;100360.28;5438566;26;20466;-67
2024/04/24 03:02:11;;;;;;;2.20;0.60;;;;;;;6.14;72.27;100352.72;5427479;26;20474;-67
2024/04/24 03:04:39;;;;;;;2.40;0.80;;;;;;;6.10;71.42;100348.97;5411081;26;20462;-67
2024/04/24 03:07:05;;;;;;;2.30;0.50;;;;;;;6.15;71.53;100362.38;5441011;26;21083;-67
2024/04/24 03:09:37;;;;;;;2.30;0.60;;;;;;;6.12;72.19;100349.53;5434048;26;20832;-67
2024/04/24 03:12:06;;;;;;;3.50;1.23;;;;;;;6.10;71.54;100350.84;5433321;26;20521;-67
2024/04/24 03:14:34;;;;;;;2.30;0.60;;;;;;;6.06;72.30;100347.91;5429478;26;21029;-66
2024/04/24 03:17:03;;;;;;;2.10;0.50;;;;;;;6.06;72.90;100355.97;5443940;26;20801;-66
2024/04/24 03:19:31;;;;;;;2.30;0.60;;;;;;;6.09;72.86;100344.69;5434545;26;21020;-66
2024/04/24 03:22:00;;;;;;;2.53;0.67;;;;;;;6.07;72.95;100347.66;5436156;26;20466;-67
2024/04/24 03:24:28;;;;;;;2.00;0.30;;;;;;;6.13;74.56;100347.63;5437709;26;21098;-67
2024/04/24 03:26:59;;;;;;;2.20;0.60;;;;;;;6.17;73.26;100340.63;5443811;26;20454;-67
2024/04/24 03:29:28;;;;;;;2.07;0.50;;;;;;;6.19;73.07;100341.13;5428092;26;20473;-67
2024/04/24 03:31:56;;;;;;;2.63;0.87;;;;;;;6.20;72.74;100343.56;5443640;26;20493;-67
2024/04/24 03:34:24;;;;;;;2.70;1.33;;;;;;;6.24;74.53;100338.41;5435415;26;20534;-67
2024/04/24 03:36:52;;;;;;;3.63;0.60;;;;;;;6.25;74.27;100338.16;5439865;26;20517;-67
2024/04/24 03:39:21;;;;;;;2.53;0.83;;;;;;;6.25;73.96;100334.66;5443602;26;20454;-67
2024/04/24 03:41:49;;;;;;;2.07;0.40;;;;;;;6.30;73.46;100340.00;5440615;26;20477;-68
2024/04/24 03:44:20;;;;;;;2.10;0.50;;;;;;;6.30;73.47;100323.88;5436128;26;20543;-67
2024/04/24 03:46:48;;;;;;;2.40;0.43;;;;;;;6.31;74.85;100320.88;5418610;26;21025;-66
2024/04/24 03:49:17;;;;;;;2.10;0.40;;;;;;;6.32;75.34;100322.50;5442336;26;20462;-66
2024/04/24 03:51:45;;;;;;;2.20;0.40;;;;;;;6.30;74.92;100319.28;5439794;26;20473;-64
2024/04/24 03:54:13;;;;;;;2.60;1.20;;;;;;;6.27;74.66;100324.41;5443418;26;20513;-66
2024/04/24 03:56:42;;;;;;;2.97;0.67;;;;;;;6.28;74.29;100317.94;5426973;26;20535;-66
2024/04/24 03:59:10;;;;;;;2.20;0.60;;;;;;;6.31;73.01;100320.88;5440151;26;20526;-69
2024/04/24 04:01:41;;;;;;;3.10;1.17;;;;;;;6.27;71.11;100314.47;5440640;26;20530;-68
2024/04/24 04:04:09;;;;;;;2.47;0.73;;;;;;;6.29;71.85;100314.19;5437498;26;20473;-68
2024/04/24 04:06:37;;;;;;;2.27;0.60;;;;;;;6.26;71.62;100302.09;5400770;26;20841;-68
2024/04/24 04:09:06;;;;;;;2.20;0.47;;;;;;;6.24;71.01;100308.81;5443183;26;20985;-67
2024/04/24 04:11:34;;;;;;;2.33;0.70;;;;;;;6.19;72.06;100306.97;5422294;26;20485;-66
2024/04/24 04:14:03;;;;;;;2.40;0.83;;;;;;;6.20;71.83;100307.81;5442948;26;20458;-67
2024/04/24 04:16:31;;;;;;;2.10;0.40;;;;;;;6.23;72.10;100299.16;5390096;26;20469;-68
2024/04/24 04:19:02;;;;;;;2.00;0.30;;;;;;;6.20;71.46;100300.53;5401545;26;20870;-68
2024/04/24 04:21:31;;;;;;;2.07;0.40;;;;;;;6.22;70.79;100289.50;5442565;26;20520;-68
2024/04/24 04:23:56;;;;;;;2.00;0.30;;;;;;;6.26;70.85;100294.03;5460718;26;20475;-68
2024/04/24 04:26:24;;;;;;;3.13;0.97;;;;;;;6.25;70.90;100286.25;5406788;26;20522;-67
2024/04/24 04:28:53;;;;;;;4.43;1.17;;;;;;;6.27;71.93;100281.38;5397569;26;20234;-68
2024/04/24 04:31:21;;;;;;;2.77;0.93;;;;;;;6.29;72.90;100288.09;5377109;26;20472;-68
2024/04/24 04:33:49;;;;;;;2.73;1.00;;;;;;;6.35;73.12;100288.06;5371822;26;20533;-68
2024/04/24 04:36:20;;;;;;;6.10;1.70;;;;;;;6.41;74.00;100281.53;5371700;26;20517;-68
2024/04/24 04:38:49;;;;;;;3.17;1.33;;;;;;;6.43;73.70;100290.97;5371841;26;20460;-68
2024/04/24 04:41:17;;;;;;;3.80;1.10;;;;;;;6.47;73.04;100285.81;5371758;26;20517;-68
2024/04/24 04:43:45;;;;;;;2.27;0.70;;;;;;;6.52;73.02;100283.09;5404512;26;20467;-67
2024/04/24 04:46:13;;;;;;;2.50;0.73;;;;;;;6.57;72.62;100288.44;5406691;26;20794;-68
2024/04/24 04:48:42;;;;;;;2.00;0.40;;;;;;;6.62;71.89;100283.00;5406745;26;20451;-68
2024/04/24 04:51:07;;;;;;;3.07;0.97;;;;;;;6.66;72.35;100284.03;5406773;26;20451;-68
2024/04/24 04:53:38;;;;;;;2.37;0.60;;;;;;;6.69;72.80;100280.78;5406554;26;20467;-68
2024/04/24 04:56:07;;;;;;;3.03;0.50;;;;;;;6.62;72.74;100277.63;5406613;26;20217;-68
2024/04/24 04:58:35;;;;;;;2.80;1.03;;;;;;;6.66;72.20;100275.97;5406400;26;20520;-68
2024/04/24 05:01:04;;;;;;;3.10;0.80;;;;;;;6.67;72.24;100274.88;5406348;26;20455;-68
2024/04/24 05:03:32;;;;;;;2.20;0.60;;;;;;;6.69;72.40;100278.09;5406389;26;20527;-68
2024/04/24 05:06:00;;;;;;;2.90;1.27;;;;;;;6.72;72.38;100277.53;5406441;26;20847;-67
2024/04/24 05:08:29;;;;;;;2.63;0.80;;;;;;;6.69;70.31;100272.72;5407877;26;20516;-68
2024/04/24 05:10:59;;;;;;;4.97;1.03;;;;;;;6.67;69.31;100271.38;5474981;26;20999;-68
2024/04/24 05:13:25;;;;;;;3.50;0.97;;;;;;;6.61;69.08;100270.63;5488558;26;20460;-69
2024/04/24 05:15:53;;;;;;;2.30;0.80;;;;;;;6.65;68.96;100266.28;5488578;26;20501;-68
2024/04/24 05:18:22;;;;;;;2.90;0.57;;;;;;;6.66;67.82;100262.50;5453110;26;20229;-68
2024/04/24 05:20:50;;;;;;;3.57;0.87;;;;;;;6.66;67.82;100257.13;5482736;26;20456;-68
2024/04/24 05:23:18;;;;;;;3.40;1.13;;;;;;;6.61;67.55;100261.75;5491949;26;20460;-68
2024/04/24 05:25:52;;;;;;;2.20;0.70;;;;;;;6.58;68.03;100257.75;5492361;26;20794;-68
2024/04/24 05:31:06;;;;;;;2.30;0.70;;;;;;;6.62;67.73;100248.00;5434620;26;20507;-68
2024/04/24 05:33:35;;;;;;;2.20;0.50;;;;;;;6.69;66.95;100247.69;5409455;26;20856;-68
2024/04/24 05:36:04;;;;;;;2.93;1.23;;;;;;;6.71;67.49;100245.50;5409860;26;20447;-67
2024/04/24 05:38:32;;;;;;;2.10;0.43;;;;;;;6.74;66.97;100243.06;5409399;26;20979;-68
2024/04/24 05:41:00;;;;;;;2.50;1.03;;;;;;;6.81;67.77;100238.13;5446263;26;20509;-67
2024/04/24 05:43:31;;;;;;;2.80;1.13;;;;;;;6.90;68.70;100235.63;5491773;26;20468;-67
2024/04/24 05:46:00;;;;;;;2.00;0.40;;;;;;;6.96;67.76;100239.09;5491911;26;20455;-68
2024/04/24 05:48:28;;;;;;;2.20;0.60;;;;;;;6.92;67.09;100232.66;5491880;26;20460;-68
2024/04/24 05:50:56;;;;;;;2.20;0.63;;;;;;;6.98;67.78;100236.91;5448791;26;20468;-66
2024/04/24 05:53:25;;;;;;;2.20;0.60;;;;;;;7.07;68.69;100235.19;5491848;26;20528;-67
2024/04/24 05:55:53;;;;;;;2.43;0.80;;;;;;;7.13;68.39;100228.66;5489075;26;20495;-68
2024/04/24 05:58:18;;;;;;;2.47;0.90;;;;;;;7.13;68.16;100231.38;5409135;26;20850;-67
2024/04/24 06:00:50;;;;;;;2.13;0.50;;;;;;;7.15;66.68;100226.47;5409403;26;20451;-68
2024/04/24 06:03:18;;;;;;;2.73;0.93;;;;;;;7.20;66.88;100229.13;5409351;26;20226;-67
2024/04/24 06:05:46;;;;;;;2.20;0.60;;;;;;;7.20;67.75;100223.72;5409301;26;20459;-67
2024/04/24 06:08:15;;;;;;;8.43;1.03;;;;;;;7.22;67.22;100218.06;5452150;26;20467;-67
2024/04/24 06:10:43;;;;;;;2.30;0.80;;;;;;;7.39;67.42;100218.38;5489704;26;20468;-67
2024/04/24 06:13:11;;;;;;;3.10;1.50;;;;;;;7.50;67.18;100219.06;5491625;26;20799;-67
2024/04/24 06:15:39;;;;;;;4.67;1.27;;;;;;;7.61;63.96;100219.72;5491514;26;20513;-67
2024/04/24 06:18:10;;;;;;;2.10;0.40;;;;;;;7.71;64.31;100215.00;5485424;26;20472;-67
2024/04/24 06:20:39;;;;;;;2.20;0.60;;;;;;;7.77;62.79;100215.72;5414664;26;20524;-67
2024/04/24 06:23:07;;;;;;;2.30;0.77;;;;;;;7.75;63.06;100213.34;5409036;26;20472;-67
2024/04/24 06:25:35;;;;;;;2.23;0.67;;;;;;;7.74;63.26;100210.91;5409085;26;20459;-67
2024/04/24 06:28:04;;;;;;;3.17;1.40;;;;;;;7.77;63.20;100221.91;5414294;26;20507;-68
2024/04/24 06:30:32;;;;;;;4.83;1.20;;;;;;;7.88;62.09;100211.81;5455753;26;20464;-67
2024/04/24 06:33:04;;;;;;;2.37;0.77;;;;;;;7.99;62.90;100207.84;5490431;26;20468;-67
2024/04/24 06:35:36;;;;;;;2.20;0.50;;;;;;;8.03;62.23;100208.88;5491288;26;20452;-67
2024/04/24 06:38:05;;;;;;;2.27;0.70;;;;;;;8.14;63.04;100208.69;5491283;26;21003;-67
2024/04/24 06:40:33;;;;;;;2.30;1.00;;;;;;;8.16;62.18;100206.53;5463079;26;20510;-67
2024/04/24 06:43:02;;;;;;;2.30;0.60;;;;;;;8.23;61.10;100199.63;5408708;26;20986;-66
2024/04/24 06:45:30;;;;;;;2.57;1.00;;;;;;;8.27;61.38;100197.16;5408796;26;20451;-66
2024/04/24 06:47:59;;;;;;;2.40;1.00;;;;;;;8.26;61.28;100196.38;5409028;26;21067;-66
2024/04/24 06:50:27;;;;;;;2.40;0.90;;;;;;;8.35;61.51;100202.69;5414061;26;20471;-66
2024/04/24 06:52:58;;;;;;;4.50;1.67;;;;;;;8.45;61.69;100198.25;5484901;26;20528;-66
2024/04/24 06:55:26;;;;;;;2.40;0.73;;;;;;;8.57;61.56;100195.88;5491112;26;20905;-67
2024/04/24 06:57:54;;;;;;;3.43;1.20;;;;;;;8.68;62.42;100197.31;5468453;26;20467;-66
2024/04/24 07:00:24;;;;;;;2.60;1.00;;;;;;;8.76;61.20;100195.81;5408546;26;20459;-66
2024/04/24 07:02:52;;;;;;;3.03;1.17;;;;;;;8.78;60.42;100189.00;5408375;26;20475;-67
2024/04/24 07:05:21;;;;;;;2.27;0.53;;;;;;;8.88;59.41;100198.03;5408415;26;20459;-66
2024/04/24 07:07:49;;;;;;;4.87;1.43;;;;;;;8.95;59.98;100195.75;5410511;26;20511;-65
2024/04/24 07:10:20;;;;;;;2.77;1.13;;;;;;;8.99;57.46;100184.03;5450718;26;20460;-65
2024/04/24 07:12:48;;;;;;;2.40;0.80;;;;;;;9.09;58.77;100183.03;5491092;26;20525;-66
2024/04/24 07:15:17;;;;;;;2.70;0.80;;;;;;;9.15;58.41;100189.13;5490926;26;20448;-67
2024/04/24 07:17:46;;;;;;;2.50;1.07;;;;;;;9.17;57.51;100186.94;5490926;26;21032;-67
2024/04/24 07:20:14;;;;;;;3.13;1.30;;;;;;;9.13;56.01;100183.22;5438495;26;20541;-67
2024/04/24 07:22:42;;;;;;;2.80;1.17;;;;;;;9.12;57.00;100185.13;5408078;26;20478;-67
2024/04/24 07:25:11;;;;;;;2.70;0.70;;;;;;;9.13;58.67;100175.94;5411264;26;20508;-67
2024/04/24 07:27:42;;;;;;;5.23;1.20;;;;;;;9.16;57.84;100171.81;5412590;26;20495;-65
2024/04/24 07:30:10;;;;;;;3.27;1.47;;;;;;;9.22;56.52;100178.72;5432490;26;20520;-68
2024/04/24 07:32:39;;;;;;;2.63;1.10;;;;;;;9.21;57.09;100183.31;5488755;26;20528;-69
2024/04/24 07:35:08;;;;;;;3.00;1.00;;;;;;;9.21;55.46;100175.22;5490339;26;20456;-67
2024/04/24 07:37:36;;;;;;;2.70;1.20;;;;;;;9.27;56.91;100174.00;5490314;26;20509;-69
2024/04/24 07:40:04;;;;;;;5.10;0.83;;;;;;;9.33;57.45;100172.78;5489489;26;20449;-68
2024/04/24 07:42:33;;;;;;;2.70;0.90;;;;;;;9.38;54.88;100168.38;5446651;26;20467;-68
2024/04/24 07:45:04;;;;;;;2.37;0.70;;;;;;;9.45;56.61;100171.47;5407880;26;20504;-67
2024/04/24 07:47:32;;;;;;;3.70;1.40;;;;;;;9.53;55.20;100168.84;5407864;26;20515;-67
2024/04/24 07:50:01;;;;;;;2.70;1.10;;;;;;;9.61;53.05;100170.03;5483543;26;20475;-67
2024/04/24 07:52:29;;;;;;;2.90;1.03;;;;;;;9.65;53.52;100165.63;5480051;26;20460;-67
2024/04/24 07:54:57;;;;;;;3.43;1.33;;;;;;;9.72;53.67;100163.28;5483083;26;21043;-67
2024/04/24 07:57:26;;;;;;;3.53;0.90;;;;;;;9.83;53.00;100170.06;5411591;26;20468;-69
2024/04/24 07:59:54;;;;;;;3.37;1.60;;;;;;;9.79;52.40;100166.38;5407664;26;20515;-68
2024/04/24 08:02:25;;;;;;;4.60;1.90;;;;;;;9.87;53.39;100175.66;5407347;26;20464;-68
2024/04/24 08:04:53;;;;;;;3.47;1.70;;;;;;;9.89;52.97;100165.34;5407646;26;20463;-67
2024/04/24 08:07:21;;;;;;;6.13;2.67;;;;;;;9.93;52.85;100174.44;5425729;26;20468;-67
2024/04/24 08:09:50;;;;;;;7.17;1.77;;;;;;;9.94;52.54;100175.25;5489901;26;20460;-68
2024/04/24 08:12:18;;;;;;;6.00;2.70;;;;;;;9.97;53.03;100182.75;5489776;26;20440;-68
2024/04/24 08:14:46;;;;;;;6.50;1.60;;;;;;;10.03;55.00;100178.81;5489834;26;20448;-68
2024/04/24 08:17:14;;;;;;;4.50;1.70;;;;;;;10.01;53.71;100178.31;5483576;26;20805;-69
2024/04/24 08:19:45;;;;;;;5.20;1.87;;;;;;;9.96;54.09;100181.13;5422572;26;20471;-68
2024/04/24 08:22:15;;;;;;;5.83;1.77;;;;;;;9.89;53.71;100176.16;5407259;26;20516;-68
2024/04/24 08:24:43;;;;;;;4.20;1.83;;;;;;;9.84;54.07;100174.38;5407310;26;20459;-68
2024/04/24 08:27:11;;;;;;;3.70;1.17;;;;;;;9.93;54.54;100173.66;5407521;26;20459;-68
2024/04/24 08:29:40;;;;;;;4.67;2.27;;;;;;;9.98;54.22;100179.72;5445215;26;20818;-68
2024/04/24 08:32:08;;;;;;;4.40;1.47;;;;;;;10.01;54.88;100186.44;5407252;26;20447;-68
2024/04/24 08:34:36;;;;;;;3.50;1.40;;;;;;;10.08;53.80;100182.19;5406966;26;21202;-68
2024/04/24 08:37:07;;;;;;;4.80;1.83;;;;;;;10.15;52.87;100184.47;5407078;26;20459;-68
2024/04/24 08:39:36;;;;;;;5.20;1.60;;;;;;;10.13;53.61;100178.56;5417625;26;20475;-68
2024/04/24 08:42:05;;;;;;;3.87;1.83;;;;;;;10.25;54.19;100178.03;5406869;26;20448;-68
2024/04/24 08:44:33;;;;;;;2.87;1.10;;;;;;;10.29;52.95;100179.03;5406730;26;20471;-68
2024/04/24 08:47:03;;;;;;;4.90;1.60;;;;;;;10.39;53.58;100176.03;5468727;21;20521;-67
2024/04/24 08:49:33;;;;;;;4.80;1.83;;;;;;;10.42;53.25;100177.34;5452896;26;20514;-67
2024/04/24 08:52:04;;;;;;;2.90;1.13;;;;;;;10.38;52.84;100181.78;5504330;26;20470;-67
2024/04/24 08:54:37;;;;;;;3.73;1.70;;;;;;;10.34;54.39;100181.59;5523301;26;20459;-67
2024/04/24 08:57:10;;;;;;;6.80;2.50;;;;;;;10.41;54.50;100179.25;5528058;25;20507;-67
2024/04/24 08:59:44;;;;;;;5.93;2.70;;;;;;;10.51;53.12;100180.91;5526822;26;20553;-68
2024/04/24 09:02:13;;;;;;;4.77;2.20;;;;;;;10.60;52.07;100179.84;5528337;26;20458;-67
2024/04/24 09:04:43;;;;;;;4.63;1.73;;;;;;;10.59;52.33;100178.25;5499078;26;20523;-66
2024/04/24 09:07:11;;;;;;;3.73;1.63;;;;;;;10.65;50.94;100176.19;5529648;26;20447;-67
2024/04/24 09:09:43;;;;;;;5.07;2.50;;;;;;;10.54;51.26;100183.00;5529513;26;21019;-66
2024/04/24 09:12:09;;;;;;;4.57;1.97;;;;;;;10.48;51.72;100186.94;5529539;26;20559;-67
2024/04/24 09:14:38;;;;;;;5.97;3.23;;;;;;;10.46;52.43;100181.03;5528854;26;21013;-67
2024/04/24 09:17:07;;;;;;;5.90;2.70;;;;;;;10.44;52.32;100185.94;5514145;26;20463;-67
2024/04/24 09:19:37;;;;;;;6.20;2.63;;;;;;;10.46;52.89;100181.03;5500265;26;21060;-67
2024/04/24 09:22:05;;;;;;;5.30;2.40;;;;;;;10.54;54.08;100172.16;5471656;26;20552;-67
2024/04/24 09:24:33;;;;;;;4.03;2.00;;;;;;;10.65;53.48;100178.09;5506270;25;20520;-66
2024/04/24 09:27:05;;;;;;;4.77;2.37;;;;;;;10.67;52.86;100186.69;5492428;26;21086;-67
2024/04/24 09:29:33;;;;;;;5.00;2.60;;;;;;;10.68;53.47;100183.69;5492405;26;20573;-67
2024/04/24 09:32:04;;;;;;;6.00;3.00;;;;;;;10.70;54.45;100178.75;5492242;26;20508;-67
2024/04/24 09:34:32;;;;;;;3.80;2.10;;;;;;;10.72;53.19;100175.75;5495175;26;20483;-66
2024/04/24 09:37:00;;;;;;;6.07;2.67;;;;;;;10.59;52.12;100178.25;5492355;26;20448;-66
2024/04/24 09:39:30;;;;;;;5.03;2.40;;;;;;;10.61;53.79;100172.50;5492122;26;20983;-66
2024/04/24 09:41:59;;;;;;;7.40;1.97;;;;;;;10.55;53.70;100171.84;5492366;26;21006;-67
2024/04/24 09:44:31;;;;;;;5.70;2.00;;;;;;;10.56;54.08;100175.34;5495845;26;20468;-67
2024/04/24 09:47:01;;;;;;;4.27;1.93;;;;;;;10.63;54.47;100175.72;5540777;25;20465;-67
2024/04/24 09:49:29;;;;;;;5.57;3.03;;;;;;;10.61;53.36;100176.00;5566496;25;20458;-67
2024/04/24 09:51:59;;;;;;;5.27;1.80;;;;;;;10.43;53.78;100168.91;5566334;25;20449;-67
2024/04/24 09:54:28;;;;;;;3.77;1.80;;;;;;;10.53;54.46;100168.63;5563349;25;20877;-67
2024/04/24 09:56:58;;;;;;;5.77;2.90;;;;;;;10.62;54.65;100165.97;5537780;25;20458;-67
2024/04/24 09:59:31;;;;;;;4.90;2.30;;;;;;;10.67;55.16;100163.16;5549281;25;20897;-66
2024/04/24 10:02:06;;;;;;;4.73;2.40;;;;;;;10.66;54.35;100164.25;5551832;25;20470;-67
2024/04/24 10:04:36;;;;;;;3.20;1.47;;;;;;;10.65;53.48;100164.56;5566183;25;20457;-65
2024/04/24 10:07:07;;;;;;;4.23;2.40;;;;;;;10.69;54.21;100152.78;5566221;25;20930;-65
2024/04/24 10:09:37;;;;;;;4.67;3.27;;;;;;;10.89;54.56;100150.63;5561733;25;20665;-66
2024/04/24 10:12:11;;;;;;;4.07;1.93;;;;;;;10.93;52.88;100155.09;5534425;25;20463;-65
2024/04/24 10:14:48;;;;;;;5.07;2.50;;;;;;;10.93;53.36;100148.88;5528648;26;20514;-66
2024/04/24 10:17:18;;;;;;;6.57;2.80;;;;;;;10.84;52.12;100155.06;5522166;25;20526;-66
2024/04/24 10:19:49;;;;;;;5.70;2.60;;;;;;;10.93;53.57;100149.69;5501997;26;20512;-66
2024/04/24 10:22:19;;;;;;;4.47;2.13;;;;;;;11.08;53.27;100145.75;5493623;26;20452;-66
2024/04/24 10:24:50;;;;;;;5.33;2.10;;;;;;;11.16;52.30;100147.69;5528429;26;20568;-66
2024/04/24 10:27:21;;;;;;;4.03;2.10;;;;;;;11.14;51.55;100136.34;5528514;26;20577;-66
2024/04/24 10:29:54;;;;;;;3.97;2.20;;;;;;;11.18;51.65;100137.31;5528527;26;20498;-65
2024/04/24 10:32:24;;;;;;;4.30;2.00;;;;;;;11.06;51.06;100134.41;5528217;26;20807;-65
2024/04/24 10:34:53;;;;;;;3.23;1.57;;;;;;;10.92;52.49;100129.13;5528260;26;20570;-66
2024/04/24 10:37:22;;;;;;;4.90;2.60;;;;;;;10.87;52.02;100131.97;5528227;26;20454;-66
2024/04/24 10:39:51;;;;;;;4.10;1.53;;;;;;;10.90;53.28;100133.28;5528292;26;20503;-65
2024/04/24 10:42:20;;;;;;;5.47;2.20;;;;;;;10.81;53.15;100134.03;5528117;26;20447;-65
2024/04/24 10:44:51;;;;;;;3.87;1.97;;;;;;;10.78;53.03;100126.53;5528174;26;20455;-66
2024/04/24 10:47:20;;;;;;;3.73;2.00;;;;;;;10.70;52.69;100127.28;5528041;26;20516;-66
2024/04/24 10:49:56;;;;;;;4.40;1.10;;;;;;;10.58;52.31;100121.66;5526454;25;20593;-66
2024/04/24 10:52:25;;;;;;;3.93;1.70;;;;;;;10.52;53.41;100123.72;5528187;26;20878;-66
2024/04/24 10:54:56;;;;;;;3.27;1.43;;;;;;;10.60;54.22;100122.97;5528394;26;20844;-69
2024/04/24 10:57:32;;;;;;;3.53;1.70;;;;;;;10.51;52.44;100115.91;5528563;26;20514;-65
2024/04/24 11:00:16;;;;;;;2.97;1.60;;;;;;;10.57;53.49;100114.66;5528362;26;20865;-68
2024/04/24 11:02:45;;;;;;;4.70;2.10;;;;;;;10.78;53.33;100109.47;5528128;26;20474;-67
2024/04/24 11:05:15;;;;;;;3.60;1.57;;;;;;;11.00;53.95;100106.69;5527843;26;20451;-67
2024/04/24 11:07:43;;;;;;;5.07;2.53;;;;;;;11.04;51.39;100106.84;5528226;26;20519;-67
2024/04/24 11:10:12;;;;;;;5.37;2.00;;;;;;;10.83;53.02;100104.72;5527720;26;20459;-67
2024/04/24 11:12:40;;;;;;;4.30;2.00;;;;;;;10.86;53.49;100101.38;5527871;26;20817;-67
2024/04/24 11:15:09;;;;;;;3.33;1.70;;;;;;;10.98;54.00;100098.06;5527817;26;20986;-67
2024/04/24 11:17:45;;;;;;;4.13;1.90;;;;;;;11.24;53.55;100103.50;5527676;26;20449;-67
2024/04/24 11:20:13;;;;;;;4.23;1.87;;;;;;;11.32;51.81;100096.50;5527042;26;20458;-67
2024/04/24 11:22:41;;;;;;;5.77;1.93;;;;;;;11.45;51.72;100089.34;5526954;26;20474;-67
2024/04/24 11:25:10;;;;;;;4.40;1.90;;;;;;;11.61;50.61;100091.25;5524750;26;20472;-67
2024/04/24 11:27:39;;;;;;;5.63;2.07;;;;;;;11.95;51.20;100086.13;5499086;26;20476;-68
2024/04/24 11:30:12;;;;;;;6.00;1.87;;;;;;;11.97;49.82;100083.91;5490687;26;20448;-67
2024/04/24 11:32:46;;;;;;;3.07;1.17;;;;;;;12.12;48.83;100086.09;5501793;26;20466;-67
2024/04/24 11:35:16;;;;;;;10.23;2.20;;;;;;;12.14;48.87;100070.31;5527551;26;20575;-67
2024/04/24 11:37:44;;;;;;;3.83;1.50;;;;;;;12.18;47.39;100076.69;5521663;26;20518;-68
2024/04/24 11:40:13;;;;;;;9.13;1.63;;;;;;;12.26;48.36;100075.03;5527287;26;20545;-67
2024/04/24 11:42:43;;;;;;;3.67;1.80;;;;;;;12.53;49.82;100069.19;5527322;26;20538;-69
2024/04/24 11:45:13;;;;;;;3.87;1.80;;;;;;;12.55;47.56;100077.00;5528037;26;20474;-67